Time;durP1;ratioP1;P1;durP2;ratioP2;P2;SDS_P1;SDS_P2;PMS_P1;PMS_P2;Temp;Humidity;BMP_temperature;BMP_pressure;BME280_temperature;BME280_humidity;BME280_pressure;Samples;Min_cycle;Max_cycle;Signal;HPM_P1;HPM_P2
2021/10/18 00:00:30;;;;;;;6.12;3.12;;;;;;;;;;4339070;32;20140;-66
2021/10/18 00:02:57;;;;;;;5.57;3.10;;;;;;;;;;4351502;32;20116;-68
2021/10/18 00:05:23;;;;;;;4.20;3.08;;;;;;;;;;4351405;32;20147;-67
2021/10/18 00:07:50;;;;;;;4.97;3.03;;;;;;;;;;4377300;32;20077;-66
2021/10/18 00:10:17;;;;;;;4.57;2.78;;;;;;;;;;4339329;32;20070;-67
2021/10/18 00:12:44;;;;;;;5.45;2.90;;;;;;;;;;4351523;32;20090;-65
2021/10/18 00:15:12;;;;;;;4.87;2.95;;;;;;;;;;4339106;32;20100;-67
2021/10/18 00:17:39;;;;;;;4.22;2.70;;;;;;;;;;4339248;32;20077;-67
2021/10/18 00:20:07;;;;;;;5.32;2.95;;;;;;;;;;4363115;32;20448;-68
2021/10/18 00:22:34;;;;;;;6.75;2.97;;;;;;;;;;4326205;32;20465;-67
2021/10/18 00:25:01;;;;;;;4.93;2.67;;;;;;;;;;4338569;32;20078;-67
2021/10/18 00:27:27;;;;;;;5.40;2.83;;;;;;;;;;4338480;32;20088;-66
2021/10/18 00:29:54;;;;;;;5.37;3.30;;;;;;;;;;4338740;32;20492;-68
2021/10/18 00:32:20;;;;;;;4.53;3.00;;;;;;;;;;4328516;32;20081;-67
2021/10/18 00:34:47;;;;;;;5.40;3.08;;;;;;;;;;4352481;32;20085;-68
2021/10/18 00:39:49;;;;;;;5.97;2.95;;;;;;;;;;3835883;37;20062;-67
2021/10/18 00:42:16;;;;;;;4.60;3.25;;;;;;;;;;4368398;32;20093;-67
2021/10/18 00:44:43;;;;;;;6.12;3.10;;;;;;;;;;4366200;32;20088;-67
2021/10/18 00:47:15;;;;;;;5.40;3.17;;;;;;;;;;4390696;32;20084;-67
2021/10/18 00:49:41;;;;;;;5.90;3.17;;;;;;;;;;4365624;32;20161;-67
2021/10/18 00:52:08;;;;;;;4.20;3.33;;;;;;;;;;4378100;32;20074;-67
2021/10/18 00:54:35;;;;;;;6.78;3.22;;;;;;;;;;4353228;32;20503;-68
2021/10/18 00:57:01;;;;;;;5.95;3.20;;;;;;;;;;4353160;32;20180;-67
2021/10/18 00:59:28;;;;;;;6.15;3.33;;;;;;;;;;4390133;32;20169;-67
2021/10/18 01:01:54;;;;;;;5.43;3.20;;;;;;;;;;4365713;32;20443;-66
2021/10/18 01:04:21;;;;;;;6.75;3.30;;;;;;;;;;4377910;32;20185;-66
2021/10/18 01:06:47;;;;;;;4.95;3.00;;;;;;;;;;4365809;32;20090;-66
2021/10/18 01:09:14;;;;;;;4.50;3.03;;;;;;;;;;4378507;32;20085;-67
2021/10/18 01:11:40;;;;;;;4.50;3.25;;;;;;;;;;4390294;32;20132;-67
2021/10/18 01:14:07;;;;;;;4.00;2.70;;;;;;;;;;4352939;32;20081;-67
2021/10/18 01:16:34;;;;;;;4.57;3.00;;;;;;;;;;4377863;32;20159;-66
2021/10/18 01:19:11;;;;;;;5.45;2.75;;;;;;;;;;4353289;32;20093;-67
2021/10/18 01:21:38;;;;;;;5.50;2.97;;;;;;;;;;4365413;32;20070;-68
2021/10/18 01:24:05;;;;;;;3.97;2.85;;;;;;;;;;4364931;32;20097;-65
2021/10/18 01:26:32;;;;;;;4.65;2.90;;;;;;;;;;4378069;32;20145;-67
2021/10/18 01:28:58;;;;;;;3.53;2.80;;;;;;;;;;4390000;32;20097;-67
2021/10/18 01:31:25;;;;;;;3.67;2.70;;;;;;;;;;4352708;32;20094;-67
2021/10/18 01:33:52;;;;;;;3.60;2.55;;;;;;;;;;4377773;32;20184;-67
2021/10/18 01:36:19;;;;;;;4.10;2.60;;;;;;;;;;4352265;32;20170;-68
2021/10/18 01:38:46;;;;;;;4.50;2.90;;;;;;;;;;4377190;32;20116;-67
2021/10/18 01:41:13;;;;;;;5.70;2.55;;;;;;;;;;4352564;32;20488;-66
2021/10/18 01:43:40;;;;;;;5.12;2.83;;;;;;;;;;4352830;32;20158;-65
2021/10/18 01:46:06;;;;;;;4.72;3.00;;;;;;;;;;4364640;32;20065;-67
2021/10/18 01:48:33;;;;;;;4.70;2.75;;;;;;;;;;4365217;32;20211;-66
2021/10/18 01:51:00;;;;;;;4.15;2.55;;;;;;;;;;4356080;32;20085;-67
2021/10/18 01:53:26;;;;;;;5.78;2.58;;;;;;;;;;4354861;32;20080;-67
2021/10/18 01:55:53;;;;;;;6.40;2.67;;;;;;;;;;4354623;32;20433;-65
2021/10/18 01:58:20;;;;;;;4.93;2.40;;;;;;;;;;4367269;32;20145;-67
2021/10/18 02:00:46;;;;;;;5.68;2.42;;;;;;;;;;4354792;32;20090;-67
2021/10/18 02:03:13;;;;;;;6.03;2.80;;;;;;;;;;4367422;32;20514;-68
2021/10/18 02:05:39;;;;;;;5.25;2.78;;;;;;;;;;4369256;32;20512;-67
2021/10/18 02:08:06;;;;;;;5.53;2.97;;;;;;;;;;4363459;32;20151;-67
2021/10/18 02:10:33;;;;;;;4.00;2.83;;;;;;;;;;4363698;32;20134;-67
2021/10/18 02:12:59;;;;;;;4.65;2.80;;;;;;;;;;4363924;32;20296;-67
2021/10/18 02:15:26;;;;;;;5.53;3.20;;;;;;;;;;4388674;32;20070;-67
2021/10/18 02:17:53;;;;;;;4.57;2.60;;;;;;;;;;4388934;32;20141;-68
2021/10/18 02:20:19;;;;;;;4.35;2.90;;;;;;;;;;4363629;32;20135;-67
2021/10/18 02:22:46;;;;;;;6.72;3.00;;;;;;;;;;4363481;32;20074;-68
2021/10/18 02:25:13;;;;;;;5.22;2.85;;;;;;;;;;4377066;32;20073;-67
2021/10/18 02:27:40;;;;;;;4.53;2.95;;;;;;;;;;4363990;32;20522;-68
2021/10/18 02:30:08;;;;;;;5.55;3.05;;;;;;;;;;4363880;32;20545;-68
2021/10/18 02:32:35;;;;;;;5.75;3.20;;;;;;;;;;4363600;32;20089;-66
2021/10/18 02:35:01;;;;;;;5.62;2.87;;;;;;;;;;4388261;32;20473;-67
2021/10/18 02:37:28;;;;;;;5.65;3.17;;;;;;;;;;4347052;32;20074;-70
2021/10/18 02:39:55;;;;;;;4.53;2.83;;;;;;;;;;4368831;32;20078;-67
2021/10/18 02:42:21;;;;;;;5.45;3.22;;;;;;;;;;4366740;32;20073;-67
2021/10/18 02:44:48;;;;;;;6.82;3.30;;;;;;;;;;4379304;32;20069;-67
2021/10/18 02:47:15;;;;;;;5.85;3.30;;;;;;;;;;4354813;32;20078;-68
2021/10/18 02:49:41;;;;;;;7.85;3.60;;;;;;;;;;4354023;32;20445;-66
2021/10/18 02:52:08;;;;;;;4.30;3.08;;;;;;;;;;4379098;32;20085;-68
2021/10/18 02:54:35;;;;;;;6.28;3.22;;;;;;;;;;4366893;32;20085;-67
2021/10/18 02:57:02;;;;;;;6.50;3.08;;;;;;;;;;4379257;32;20190;-67
2021/10/18 02:59:29;;;;;;;5.30;2.83;;;;;;;;;;4366565;32;20151;-66
2021/10/18 03:01:55;;;;;;;5.35;3.08;;;;;;;;;;4377645;32;20231;-67
2021/10/18 03:04:22;;;;;;;8.38;2.97;;;;;;;;;;4366699;32;20105;-66
2021/10/18 03:06:48;;;;;;;6.03;2.85;;;;;;;;;;4366442;32;20448;-67
2021/10/18 03:09:14;;;;;;;6.87;3.00;;;;;;;;;;4379205;32;20066;-67
2021/10/18 03:11:41;;;;;;;4.85;2.92;;;;;;;;;;4353913;32;20105;-67
2021/10/18 03:14:08;;;;;;;6.32;3.10;;;;;;;;;;4341518;32;20089;-67
2021/10/18 03:16:34;;;;;;;4.35;2.95;;;;;;;;;;4392370;32;20078;-65
2021/10/18 03:19:01;;;;;;;4.25;3.20;;;;;;;;;;4365966;32;20065;-66
2021/10/18 03:21:28;;;;;;;5.75;3.40;;;;;;;;;;4353854;32;20077;-67
2021/10/18 03:23:54;;;;;;;4.75;2.80;;;;;;;;;;4353410;32;20512;-66
2021/10/18 03:26:21;;;;;;;5.10;3.37;;;;;;;;;;4366033;32;20151;-67
2021/10/18 03:28:47;;;;;;;5.65;3.15;;;;;;;;;;4366077;32;20504;-67
2021/10/18 03:31:14;;;;;;;5.12;2.95;;;;;;;;;;4365764;32;20106;-66
2021/10/18 03:33:41;;;;;;;7.05;3.55;;;;;;;;;;4353647;32;20097;-66
2021/10/18 03:36:08;;;;;;;5.35;3.20;;;;;;;;;;4378592;32;20108;-66
2021/10/18 03:38:35;;;;;;;6.75;3.60;;;;;;;;;;4365385;32;20082;-67
2021/10/18 03:41:02;;;;;;;5.32;3.17;;;;;;;;;;4353154;32;20516;-67
2021/10/18 03:43:29;;;;;;;4.00;2.37;;;;;;;;;;4353410;32;20072;-67
2021/10/18 03:45:55;;;;;;;5.37;3.05;;;;;;;;;;4353585;32;20182;-68
2021/10/18 03:48:22;;;;;;;4.28;2.60;;;;;;;;;;4365639;32;20153;-67
2021/10/18 03:50:49;;;;;;;3.60;2.25;;;;;;;;;;4379460;32;20081;-67
2021/10/18 03:53:15;;;;;;;2.92;2.12;;;;;;;;;;4358263;32;20078;-67
2021/10/18 03:55:42;;;;;;;5.37;3.45;;;;;;;;;;4354169;32;20441;-67
2021/10/18 03:58:09;;;;;;;9.27;3.50;;;;;;;;;;4377838;32;20073;-66
2021/10/18 04:00:35;;;;;;;4.12;2.92;;;;;;;;;;4365525;32;20074;-67
2021/10/18 04:03:01;;;;;;;4.43;2.78;;;;;;;;;;4391783;32;20078;-65
2021/10/18 04:05:28;;;;;;;4.75;3.20;;;;;;;;;;4364838;32;20091;-67
2021/10/18 04:07:55;;;;;;;4.20;2.75;;;;;;;;;;4364823;32;20551;-66
2021/10/18 04:10:22;;;;;;;3.72;2.60;;;;;;;;;;4377878;32;20497;-67
2021/10/18 04:12:48;;;;;;;5.22;3.17;;;;;;;;;;4364650;32;20150;-66
2021/10/18 04:15:15;;;;;;;6.00;3.67;;;;;;;;;;4365367;32;20454;-67
2021/10/18 04:17:42;;;;;;;5.50;2.85;;;;;;;;;;4352634;32;20086;-67
2021/10/18 04:20:09;;;;;;;4.75;2.70;;;;;;;;;;4352766;32;20081;-67
2021/10/18 04:22:35;;;;;;;4.90;2.85;;;;;;;;;;4365792;32;20077;-67
2021/10/18 04:25:02;;;;;;;4.18;2.47;;;;;;;;;;4377652;32;20536;-67
2021/10/18 04:27:29;;;;;;;4.40;2.85;;;;;;;;;;4340595;32;20109;-68
2021/10/18 04:29:55;;;;;;;5.35;3.30;;;;;;;;;;4364752;32;20081;-65
2021/10/18 04:32:21;;;;;;;5.30;3.12;;;;;;;;;;4365239;32;20632;-67
2021/10/18 04:34:48;;;;;;;6.65;3.30;;;;;;;;;;4365024;32;20094;-67
2021/10/18 04:37:14;;;;;;;7.00;3.30;;;;;;;;;;4352747;32;20073;-66
2021/10/18 04:39:41;;;;;;;4.50;2.90;;;;;;;;;;4364563;32;20080;-67
2021/10/18 04:42:07;;;;;;;5.05;3.10;;;;;;;;;;4352682;32;20070;-67
2021/10/18 04:44:36;;;;;;;4.50;3.28;;;;;;;;;;4365124;32;20073;-67
2021/10/18 04:47:04;;;;;;;4.12;3.15;;;;;;;;;;4365066;32;20489;-68
2021/10/18 04:49:30;;;;;;;5.62;3.42;;;;;;;;;;4365098;32;20077;-67
2021/10/18 04:51:56;;;;;;;5.18;3.47;;;;;;;;;;4377689;32;20174;-65
2021/10/18 04:54:23;;;;;;;5.70;3.47;;;;;;;;;;4365037;32;20106;-66
2021/10/18 04:56:49;;;;;;;5.78;3.25;;;;;;;;;;4353005;32;20077;-67
2021/10/18 04:59:16;;;;;;;5.20;3.28;;;;;;;;;;4352651;32;20162;-67
2021/10/18 05:01:42;;;;;;;4.87;3.25;;;;;;;;;;4364849;32;20113;-67
2021/10/18 05:04:09;;;;;;;6.20;3.80;;;;;;;;;;4352324;32;20066;-68
2021/10/18 05:06:35;;;;;;;4.60;2.90;;;;;;;;;;4377160;32;20074;-67
2021/10/18 05:09:02;;;;;;;7.53;4.12;;;;;;;;;;4352841;32;20082;-65
2021/10/18 05:11:28;;;;;;;5.65;3.75;;;;;;;;;;4365184;32;20514;-67
2021/10/18 05:13:55;;;;;;;6.57;3.90;;;;;;;;;;4377399;32;20593;-67
2021/10/18 05:16:22;;;;;;;6.57;4.10;;;;;;;;;;4364575;32;20097;-67
2021/10/18 05:18:48;;;;;;;5.20;3.67;;;;;;;;;;4364888;32;20069;-66
2021/10/18 05:21:15;;;;;;;6.55;4.07;;;;;;;;;;4364724;32;20234;-67
2021/10/18 05:23:41;;;;;;;5.95;3.75;;;;;;;;;;4352382;32;20687;-66
2021/10/18 05:26:08;;;;;;;8.50;3.83;;;;;;;;;;4393273;32;20081;-67
2021/10/18 05:28:34;;;;;;;5.57;3.47;;;;;;;;;;4380368;32;20070;-67
2021/10/18 05:31:01;;;;;;;5.57;3.75;;;;;;;;;;4367648;32;20066;-67
2021/10/18 05:33:27;;;;;;;5.72;3.50;;;;;;;;;;4379896;32;20510;-66
2021/10/18 05:35:54;;;;;;;6.15;3.62;;;;;;;;;;4367714;32;20153;-71
2021/10/18 05:38:20;;;;;;;7.85;4.20;;;;;;;;;;4362762;32;20066;-68
2021/10/18 05:40:48;;;;;;;5.07;3.53;;;;;;;;;;4338099;32;20169;-67
2021/10/18 05:43:15;;;;;;;6.75;3.05;;;;;;;;;;4337616;32;20547;-67
2021/10/18 05:45:42;;;;;;;7.60;3.37;;;;;;;;;;4362269;32;20161;-67
2021/10/18 05:48:08;;;;;;;8.38;3.62;;;;;;;;;;4349884;32;20505;-68
2021/10/18 05:50:39;;;;;;;5.75;3.97;;;;;;;;;;4362120;32;20078;-66
2021/10/18 05:53:05;;;;;;;6.35;4.03;;;;;;;;;;4337856;32;20071;-66
2021/10/18 05:55:32;;;;;;;5.45;3.25;;;;;;;;;;4350134;32;20269;-67
2021/10/18 05:58:00;;;;;;;5.47;3.47;;;;;;;;;;4349775;32;20074;-67
2021/10/18 06:00:27;;;;;;;5.87;3.65;;;;;;;;;;4350040;32;20075;-67
2021/10/18 06:02:53;;;;;;;5.97;3.55;;;;;;;;;;4361909;32;20071;-66
2021/10/18 06:05:20;;;;;;;5.37;3.70;;;;;;;;;;4349386;32;20067;-67
2021/10/18 06:07:47;;;;;;;5.70;3.58;;;;;;;;;;4349672;32;20156;-66
2021/10/18 06:10:14;;;;;;;8.25;4.20;;;;;;;;;;4349726;32;20590;-67
2021/10/18 06:12:41;;;;;;;6.22;4.00;;;;;;;;;;4349789;32;20496;-67
2021/10/18 06:15:08;;;;;;;8.10;4.37;;;;;;;;;;4349324;32;20088;-65
2021/10/18 06:17:36;;;;;;;7.28;4.28;;;;;;;;;;4336792;32;20469;-68
2021/10/18 06:20:07;;;;;;;8.05;5.15;;;;;;;;;;4336858;32;20086;-66
2021/10/18 06:22:33;;;;;;;7.45;4.60;;;;;;;;;;4350593;32;20083;-66
2021/10/18 06:25:00;;;;;;;7.37;4.20;;;;;;;;;;4350198;32;20074;-67
2021/10/18 06:27:27;;;;;;;7.65;3.83;;;;;;;;;;4361649;32;20089;-66
2021/10/18 06:29:53;;;;;;;7.60;3.50;;;;;;;;;;4336647;32;20070;-67
2021/10/18 06:32:19;;;;;;;9.65;4.62;;;;;;;;;;4363432;32;20482;-67
2021/10/18 06:34:46;;;;;;;8.77;4.68;;;;;;;;;;4349253;32;20093;-67
2021/10/18 06:37:13;;;;;;;5.30;4.00;;;;;;;;;;4349008;32;20170;-67
2021/10/18 06:39:39;;;;;;;7.00;4.05;;;;;;;;;;4360246;32;20501;-67
2021/10/18 06:42:06;;;;;;;5.97;3.87;;;;;;;;;;4349129;32;20090;-66
2021/10/18 06:44:33;;;;;;;6.20;4.20;;;;;;;;;;4337129;32;20092;-67
2021/10/18 06:47:00;;;;;;;7.95;4.32;;;;;;;;;;4336569;32;20109;-66
2021/10/18 06:49:26;;;;;;;8.23;4.50;;;;;;;;;;4348739;32;20059;-68
2021/10/18 06:51:55;;;;;;;6.72;3.90;;;;;;;;;;4349190;32;20090;-68
2021/10/18 06:54:22;;;;;;;5.18;3.78;;;;;;;;;;4349348;32;20078;-67
2021/10/18 06:56:49;;;;;;;6.37;3.83;;;;;;;;;;4336959;32;20098;-65
2021/10/18 06:59:16;;;;;;;6.80;3.90;;;;;;;;;;4336646;32;20166;-68
2021/10/18 07:01:43;;;;;;;7.72;4.28;;;;;;;;;;4348384;32;20532;-68
2021/10/18 07:04:10;;;;;;;5.93;3.42;;;;;;;;;;4336548;32;20066;-67
2021/10/18 07:06:36;;;;;;;6.85;4.37;;;;;;;;;;4336469;32;20156;-66
2021/10/18 07:09:03;;;;;;;8.32;4.47;;;;;;;;;;4362479;32;20586;-66
2021/10/18 07:11:29;;;;;;;5.80;3.62;;;;;;;;;;4361456;32;20082;-68
2021/10/18 07:14:05;;;;;;;8.75;4.70;;;;;;;;;;3857206;37;20066;-67
2021/10/18 07:16:31;;;;;;;6.97;4.35;;;;;;;;;;4406154;32;20081;-66
2021/10/18 07:18:58;;;;;;;6.40;4.03;;;;;;;;;;4419076;32;20524;-68
2021/10/18 07:21:25;;;;;;;8.15;4.95;;;;;;;;;;4405944;32;20076;-67
2021/10/18 07:23:52;;;;;;;7.70;4.03;;;;;;;;;;4405354;32;20148;-67
2021/10/18 07:26:19;;;;;;;5.65;3.87;;;;;;;;;;4393698;32;20231;-67
2021/10/18 07:28:46;;;;;;;6.12;3.87;;;;;;;;;;4392879;32;20163;-66
2021/10/18 07:31:12;;;;;;;8.23;4.35;;;;;;;;;;4393058;32;20073;-67
2021/10/18 07:33:39;;;;;;;5.70;4.12;;;;;;;;;;4405545;32;20083;-66
2021/10/18 07:36:11;;;;;;;6.45;4.22;;;;;;;;;;4393423;32;20074;-67
2021/10/18 07:38:38;;;;;;;6.90;4.10;;;;;;;;;;4406463;32;20192;-67
2021/10/18 07:41:05;;;;;;;6.85;3.87;;;;;;;;;;4392462;32;20076;-66
2021/10/18 07:43:32;;;;;;;5.90;3.47;;;;;;;;;;4405809;32;20104;-67
2021/10/18 07:45:58;;;;;;;6.30;3.72;;;;;;;;;;4405300;32;20174;-67
2021/10/18 07:48:25;;;;;;;9.02;3.72;;;;;;;;;;4405376;32;20080;-67
2021/10/18 07:50:51;;;;;;;5.05;3.28;;;;;;;;;;4418009;32;20091;-67
2021/10/18 07:53:18;;;;;;;7.50;3.67;;;;;;;;;;4392800;32;20173;-65
2021/10/18 07:55:44;;;;;;;8.48;4.00;;;;;;;;;;4417518;32;20161;-65
2021/10/18 07:58:11;;;;;;;5.62;3.45;;;;;;;;;;4417918;32;20129;-67
2021/10/18 08:00:37;;;;;;;7.00;3.95;;;;;;;;;;4405116;32;20096;-67
2021/10/18 08:03:04;;;;;;;5.85;3.62;;;;;;;;;;4392523;32;20081;-66
2021/10/18 08:05:31;;;;;;;4.78;3.67;;;;;;;;;;4406363;32;20604;-65
2021/10/18 08:07:57;;;;;;;5.32;3.97;;;;;;;;;;4420523;32;20065;-67
2021/10/18 08:10:24;;;;;;;7.35;4.22;;;;;;;;;;4406266;32;20127;-67
2021/10/18 08:12:51;;;;;;;5.03;3.42;;;;;;;;;;4393129;32;20148;-66
2021/10/18 08:15:18;;;;;;;6.47;3.33;;;;;;;;;;4419802;32;20080;-66
2021/10/18 08:17:45;;;;;;;7.80;3.60;;;;;;;;;;4392749;32;20080;-67
2021/10/18 08:20:11;;;;;;;5.68;3.65;;;;;;;;;;4380145;32;20085;-65
2021/10/18 08:22:38;;;;;;;5.57;3.65;;;;;;;;;;4380320;32;20093;-67
2021/10/18 08:25:06;;;;;;;6.97;3.85;;;;;;;;;;4409669;32;20146;-67
2021/10/18 08:27:32;;;;;;;6.82;4.18;;;;;;;;;;4369348;32;20459;-65
2021/10/18 08:29:59;;;;;;;5.87;3.53;;;;;;;;;;4370049;32;20066;-67
2021/10/18 08:32:25;;;;;;;5.80;3.30;;;;;;;;;;4394419;32;20084;-66
2021/10/18 08:34:52;;;;;;;7.18;3.45;;;;;;;;;;4395201;32;20130;-67
2021/10/18 08:37:18;;;;;;;6.87;3.62;;;;;;;;;;4369946;32;20073;-67
2021/10/18 08:42:24;;;;;;;5.82;3.62;;;;;;;;;;4394971;32;20074;-67
2021/10/18 08:44:51;;;;;;;6.35;4.07;;;;;;;;;;4408068;32;20077;-67
2021/10/18 08:47:18;;;;;;;7.43;4.20;;;;;;;;;;4383939;32;20133;-67
2021/10/18 08:49:45;;;;;;;7.18;3.90;;;;;;;;;;4383617;32;20173;-65
2021/10/18 08:52:14;;;;;;;5.30;3.67;;;;;;;;;;4384133;32;20061;-65
2021/10/18 08:54:40;;;;;;;5.18;3.70;;;;;;;;;;4382476;32;20540;-66
2021/10/18 08:57:10;;;;;;;9.68;3.90;;;;;;;;;;4395471;32;20057;-66
2021/10/18 08:59:36;;;;;;;5.22;3.67;;;;;;;;;;4394590;32;20083;-66
2021/10/18 09:02:03;;;;;;;5.03;3.45;;;;;;;;;;4407544;32;20541;-68
2021/10/18 09:04:31;;;;;;;5.60;3.78;;;;;;;;;;4381945;32;20146;-66
2021/10/18 09:07:01;;;;;;;6.80;3.72;;;;;;;;;;4369651;32;20173;-66
2021/10/18 09:09:30;;;;;;;7.40;3.67;;;;;;;;;;4394070;32;20092;-67
2021/10/18 09:12:00;;;;;;;8.32;3.72;;;;;;;;;;4369916;32;20492;-68
2021/10/18 09:14:27;;;;;;;6.85;3.60;;;;;;;;;;4382541;32;20085;-67
2021/10/18 09:16:59;;;;;;;5.82;3.72;;;;;;;;;;4381714;32;20076;-67
2021/10/18 09:19:26;;;;;;;7.20;3.50;;;;;;;;;;4381163;32;20507;-67
2021/10/18 09:21:54;;;;;;;5.65;3.60;;;;;;;;;;4381910;32;20092;-67
2021/10/18 09:24:31;;;;;;;7.70;4.20;;;;;;;;;;4407712;32;20432;-66
2021/10/18 09:26:58;;;;;;;6.95;3.83;;;;;;;;;;4396759;32;20515;-66
2021/10/18 09:29:36;;;;;;;8.23;3.80;;;;;;;;;;4386648;32;20089;-63
2021/10/18 09:32:03;;;;;;;4.93;3.47;;;;;;;;;;4375163;32;20117;-67
2021/10/18 09:34:34;;;;;;;5.97;3.92;;;;;;;;;;4376137;32;20085;-64
2021/10/18 09:37:14;;;;;;;8.90;2.95;;;;;;;;;;4360993;32;20098;-65
2021/10/18 09:39:47;;;;;;;6.68;3.35;;;;;;;;;;4389314;32;20083;-63
2021/10/18 09:42:16;;;;;;;5.93;3.58;;;;;;;;;;4356230;32;20406;-68
2021/10/18 10:53:26;;;;;;;6.78;4.35;;;;;;;;;;4352918;32;20137;-68
2021/10/18 10:55:54;;;;;;;4.85;3.08;;;;;;;;;;4362111;32;20124;-68
2021/10/18 10:58:37;;;;;;;5.37;3.72;;;;;;;;;;4361492;32;20176;-65
2021/10/18 11:01:04;;;;;;;7.90;4.20;;;;;;;;;;4360587;32;20090;-66
2021/10/18 11:03:36;;;;;;;6.25;3.55;;;;;;;;;;4349326;32;20085;-66
2021/10/18 11:06:04;;;;;;;4.97;3.65;;;;;;;;;;4358798;32;20493;-66
2021/10/18 11:08:40;;;;;;;7.50;3.87;;;;;;;;;;4349629;32;20070;-63
2021/10/18 11:11:10;;;;;;;9.07;3.43;;;;;;;;;;4384773;32;20070;-72
2021/10/18 11:13:52;;;;;;;6.37;3.78;;;;;;;;;;4360109;32;20162;-74
2021/10/18 11:16:19;;;;;;;6.47;3.87;;;;;;;;;;4359501;32;20097;-71
2021/10/18 11:18:50;;;;;;;7.68;3.80;;;;;;;;;;4362875;32;20078;-70
2021/10/18 11:21:25;;;;;;;5.40;3.62;;;;;;;;;;4377846;32;20249;-72
2021/10/18 11:24:12;;;;;;;5.82;3.75;;;;;;;;;;4339273;32;20108;-73
2021/10/18 11:26:42;;;;;;;7.25;3.90;;;;;;;;;;4376466;32;20072;-72
2021/10/18 11:29:10;;;;;;;6.10;3.80;;;;;;;;;;4350328;32;20093;-72
2021/10/18 11:31:42;;;;;;;5.18;3.85;;;;;;;;;;4350047;32;20074;-71
2021/10/18 11:34:18;;;;;;;7.28;4.28;;;;;;;;;;4350116;32;20074;-71
2021/10/18 11:36:47;;;;;;;6.72;4.20;;;;;;;;;;4363962;32;20074;-70
2021/10/18 11:39:18;;;;;;;8.35;3.58;;;;;;;;;;4337353;32;20090;-70
2021/10/18 11:42:04;;;;;;;8.57;4.20;;;;;;;;;;4354234;32;20142;-70
2021/10/18 11:44:50;;;;;;;7.50;4.18;;;;;;;;;;4380246;32;20154;-70
2021/10/18 11:47:28;;;;;;;6.55;3.62;;;;;;;;;;4363007;32;20084;-71
2021/10/18 11:50:07;;;;;;;5.78;3.60;;;;;;;;;;4346754;32;20093;-70
2021/10/18 11:52:34;;;;;;;7.50;3.92;;;;;;;;;;4372108;32;20536;-70
2021/10/18 11:55:01;;;;;;;5.93;4.05;;;;;;;;;;4359864;32;20671;-71
2021/10/18 11:57:27;;;;;;;6.55;4.18;;;;;;;;;;4371768;32;20154;-70
2021/10/18 11:59:54;;;;;;;7.45;3.97;;;;;;;;;;4357360;32;20084;-70
2021/10/18 12:02:24;;;;;;;5.68;3.85;;;;;;;;;;4337431;32;20087;-71
2021/10/18 12:04:57;;;;;;;7.12;3.70;;;;;;;;;;4349784;32;20444;-71
2021/10/18 12:07:42;;;;;;;6.37;4.28;;;;;;;;;;4349689;32;20071;-71
2021/10/18 12:10:17;;;;;;;7.15;4.35;;;;;;;;;;4363766;32;20478;-72
2021/10/18 12:13:10;;;;;;;10.00;4.65;;;;;;;;;;4311478;33;20071;-71
2021/10/18 12:16:19;;;;;;;5.85;4.28;;;;;;;;;;4341866;32;20094;-66
2021/10/18 12:18:53;;;;;;;6.55;4.03;;;;;;;;;;4331877;33;20139;-66
2021/10/18 12:21:25;;;;;;;6.70;4.05;;;;;;;;;;4332266;33;20082;-67
2021/10/18 12:24:04;;;;;;;6.72;4.10;;;;;;;;;;4350216;32;20449;-67
2021/10/18 12:26:31;;;;;;;7.57;4.40;;;;;;;;;;4361307;32;20079;-65
2021/10/18 12:29:09;;;;;;;9.05;4.93;;;;;;;;;;4335731;33;20086;-63
2021/10/18 12:31:42;;;;;;;10.10;5.40;;;;;;;;;;4332102;32;20225;-65
2021/10/18 12:34:23;;;;;;;8.85;4.55;;;;;;;;;;4339674;32;20071;-68
2021/10/18 12:37:06;;;;;;;9.85;5.15;;;;;;;;;;4345123;32;20165;-67
2021/10/18 12:39:36;;;;;;;8.85;5.65;;;;;;;;;;4344351;32;20551;-64
2021/10/18 12:42:03;;;;;;;8.00;4.80;;;;;;;;;;4345310;32;20820;-66
2021/10/18 12:44:38;;;;;;;7.35;4.30;;;;;;;;;;4340053;32;20138;-65
2021/10/18 12:47:17;;;;;;;7.65;4.68;;;;;;;;;;4335099;33;20517;-65
2021/10/18 12:49:51;;;;;;;7.90;4.18;;;;;;;;;;4319752;32;20076;-66
2021/10/18 12:52:29;;;;;;;10.63;5.45;;;;;;;;;;4332036;32;20165;-64
2021/10/18 12:54:56;;;;;;;8.48;4.82;;;;;;;;;;4334557;32;20086;-65
2021/10/18 12:57:27;;;;;;;7.70;4.53;;;;;;;;;;4323916;33;20087;-65
2021/10/18 13:00:09;;;;;;;9.13;4.65;;;;;;;;;;4332658;33;20453;-63
2021/10/18 13:02:37;;;;;;;8.77;4.45;;;;;;;;;;4331055;33;20086;-65
2021/10/18 13:05:10;;;;;;;8.43;4.43;;;;;;;;;;4310993;32;20148;-65
2021/10/18 13:07:52;;;;;;;10.30;4.50;;;;;;;;;;3797080;37;20118;-66
2021/10/18 13:10:19;;;;;;;7.55;4.80;;;;;;;;;;4371810;32;20063;-65
2021/10/18 13:12:45;;;;;;;7.15;4.40;;;;;;;;;;4377641;32;20073;-64
2021/10/18 13:15:15;;;;;;;6.70;4.37;;;;;;;;;;4373738;32;20102;-66
2021/10/18 13:17:42;;;;;;;8.68;4.95;;;;;;;;;;4359198;32;20058;-64
2021/10/18 13:20:09;;;;;;;6.93;4.75;;;;;;;;;;4377845;32;20066;-70
2021/10/18 13:22:37;;;;;;;9.13;5.60;;;;;;;;;;4376349;32;20156;-70
2021/10/18 13:25:04;;;;;;;9.50;4.68;;;;;;;;;;4368884;32;20090;-69
2021/10/18 13:27:31;;;;;;;7.93;4.82;;;;;;;;;;4379003;32;20088;-69
2021/10/18 13:29:58;;;;;;;7.40;4.60;;;;;;;;;;4367217;32;20078;-68
2021/10/18 13:32:25;;;;;;;7.40;4.65;;;;;;;;;;4347496;32;20158;-67
2021/10/18 13:34:51;;;;;;;8.07;4.50;;;;;;;;;;4350533;32;20115;-68
2021/10/18 13:37:18;;;;;;;10.85;4.60;;;;;;;;;;4364822;32;20058;-65
2021/10/18 13:39:44;;;;;;;7.82;4.20;;;;;;;;;;4342959;32;20108;-65
2021/10/18 13:42:11;;;;;;;6.53;4.15;;;;;;;;;;4365285;32;20093;-69
2021/10/18 13:44:39;;;;;;;9.73;4.37;;;;;;;;;;4372252;32;20166;-69
2021/10/18 13:47:06;;;;;;;8.95;4.57;;;;;;;;;;4358044;32;20573;-67
2021/10/18 13:49:32;;;;;;;7.93;4.53;;;;;;;;;;4361578;32;20500;-67
2021/10/18 13:51:59;;;;;;;8.02;4.47;;;;;;;;;;4359233;32;20090;-68
2021/10/18 13:54:25;;;;;;;10.52;5.72;;;;;;;;;;4331192;32;20085;-67
2021/10/18 13:56:52;;;;;;;9.90;5.00;;;;;;;;;;4356796;32;20266;-68
2021/10/18 13:59:18;;;;;;;11.85;4.62;;;;;;;;;;4355584;32;20074;-65
2021/10/18 14:01:46;;;;;;;7.93;4.47;;;;;;;;;;4370494;32;20607;-67
2021/10/18 14:04:13;;;;;;;10.82;5.00;;;;;;;;;;4347847;32;20089;-68
2021/10/18 14:06:41;;;;;;;8.57;4.62;;;;;;;;;;4359045;32;20062;-66
2021/10/18 14:09:08;;;;;;;9.23;4.30;;;;;;;;;;4372344;32;20089;-67
2021/10/18 14:11:35;;;;;;;8.48;4.47;;;;;;;;;;4338398;32;20093;-65
2021/10/18 14:14:01;;;;;;;7.95;3.87;;;;;;;;;;4332877;32;20082;-65
2021/10/18 14:16:28;;;;;;;7.35;4.53;;;;;;;;;;4357596;32;20492;-67
2021/10/18 14:18:56;;;;;;;9.38;4.40;;;;;;;;;;4351429;32;20542;-67
2021/10/18 14:21:23;;;;;;;8.93;4.40;;;;;;;;;;4342138;32;20218;-65
2021/10/18 14:23:49;;;;;;;9.18;4.53;;;;;;;;;;4350029;32;20481;-66
2021/10/18 14:26:16;;;;;;;12.40;4.75;;;;;;;;;;4353205;32;20076;-66
2021/10/18 14:28:43;;;;;;;7.85;4.12;;;;;;;;;;4347221;32;20109;-69
2021/10/18 14:31:10;;;;;;;9.63;4.37;;;;;;;;;;4358499;32;20061;-66
2021/10/18 14:33:36;;;;;;;8.25;4.40;;;;;;;;;;4342417;32;20101;-65
2021/10/18 14:36:06;;;;;;;8.20;4.70;;;;;;;;;;4330240;32;20077;-68
2021/10/18 14:38:32;;;;;;;9.98;4.70;;;;;;;;;;4345900;32;20078;-65
2021/10/18 14:40:59;;;;;;;8.07;4.50;;;;;;;;;;4347659;32;20098;-64
2021/10/18 14:43:25;;;;;;;10.45;4.60;;;;;;;;;;4331785;32;20530;-66
2021/10/18 14:45:52;;;;;;;13.32;4.97;;;;;;;;;;4334172;32;20165;-69
2021/10/18 14:48:19;;;;;;;11.57;4.95;;;;;;;;;;4334986;32;20086;-66
2021/10/18 14:50:45;;;;;;;9.70;4.72;;;;;;;;;;4344766;32;20081;-70
2021/10/18 14:53:12;;;;;;;11.82;4.60;;;;;;;;;;4330543;32;20220;-68
2021/10/18 14:55:41;;;;;;;11.25;4.65;;;;;;;;;;4347258;32;20071;-64
2021/10/18 14:58:12;;;;;;;7.20;4.15;;;;;;;;;;4359384;32;20179;-66
2021/10/18 15:00:39;;;;;;;7.55;3.92;;;;;;;;;;4335177;32;20065;-65
2021/10/18 15:03:05;;;;;;;8.40;4.80;;;;;;;;;;4358779;32;20190;-71
2021/10/18 15:05:32;;;;;;;8.90;5.05;;;;;;;;;;4347627;32;20437;-72
2021/10/18 15:07:59;;;;;;;11.50;4.75;;;;;;;;;;4348939;32;20516;-71
2021/10/18 15:10:26;;;;;;;11.45;4.68;;;;;;;;;;4348643;32;20115;-72
2021/10/18 15:12:53;;;;;;;11.23;4.40;;;;;;;;;;4327953;32;20082;-71
2021/10/18 15:15:23;;;;;;;7.22;3.55;;;;;;;;;;4351276;32;20094;-72
2021/10/18 15:17:50;;;;;;;7.32;3.92;;;;;;;;;;4351966;32;20082;-72
2021/10/18 15:20:17;;;;;;;10.20;4.53;;;;;;;;;;4351321;32;20070;-73
2021/10/18 15:22:43;;;;;;;12.80;3.90;;;;;;;;;;4351502;32;20078;-72
2021/10/18 15:25:10;;;;;;;6.87;3.80;;;;;;;;;;4326995;32;20066;-72
2021/10/18 15:27:37;;;;;;;10.65;3.87;;;;;;;;;;4338846;32;20165;-71
2021/10/18 15:30:05;;;;;;;10.30;4.78;;;;;;;;;;4337172;32;20094;-71
2021/10/18 15:32:31;;;;;;;9.35;3.50;;;;;;;;;;4338444;32;20506;-70
2021/10/18 15:34:58;;;;;;;11.82;4.65;;;;;;;;;;4351249;32;20090;-72
2021/10/18 15:37:24;;;;;;;11.70;3.80;;;;;;;;;;4363746;32;20153;-72
2021/10/18 15:39:51;;;;;;;8.07;4.03;;;;;;;;;;4339279;32;20508;-70
2021/10/18 15:42:17;;;;;;;7.65;3.80;;;;;;;;;;4363561;32;20442;-72
2021/10/18 15:44:44;;;;;;;9.57;3.80;;;;;;;;;;4352241;32;20097;-72
2021/10/18 15:47:12;;;;;;;12.30;3.90;;;;;;;;;;4344056;32;20151;-71
2021/10/18 15:49:39;;;;;;;7.95;3.70;;;;;;;;;;4353134;32;20153;-71
2021/10/18 15:52:05;;;;;;;11.32;4.28;;;;;;;;;;4363785;32;20094;-71
2021/10/18 15:54:32;;;;;;;8.35;3.45;;;;;;;;;;4377737;32;20073;-71
2021/10/18 15:56:58;;;;;;;6.12;3.35;;;;;;;;;;4339089;32;20161;-72
2021/10/18 15:59:25;;;;;;;9.23;3.92;;;;;;;;;;4339225;32;20167;-72
2021/10/18 16:01:51;;;;;;;5.85;3.70;;;;;;;;;;4350952;32;20069;-71